Hlavní strana
METAR-TAF:

METAR-TAF

Letiště :

Røst, Norsko

zeměpisná šířka: 67-31N, zeměpisná délka: 012-06E, výška: 4 m

Aktuální stav počasí

Zpráva byla vytvořena před 9 hodinami a 4 minutami, v 17:50 UTC
Západní vítr 31 kt
Teplota 9°C
Vlhkost vzduchu 87%
Tlak 1003 hPa
Viditelnost 10 km a více
Skoro jasno ve výšce 900 ft
Polojasno ve výšce 1600 ft
Oblačno až skoro zataženo ve výšce 4500 ft
déšť

METAR: ENRS 181750Z 26031KT 9999 RA FEW009 SCT016 BKN045 09/07 Q1003

Čas: 04:54 (02:54 UTC)


TAF: chybějící

Stav a předpovědi počasí z více než 4 000 letišť (zprávy METAR a TAF).

Červené a žluté tečky na mapě představují dostupné meteorologické stanice.

Když kurzor umístíte na tečku, zobrazí se název stanice.

Pak kliknutím zobrazíte stav a předpověď počasí.

Chcete-li změnit mapu, kliknutím na zelené tlačítko se znaménkem +mapu přiblížíte, kliknutím na zelené tlačítko se znaménkem – mapu oddálíte a kliknutím na zelené šipky přejdete na sousední mapy.


METAR-TAF: